ORBI/SDA METAR and TAF weather

Enter ICAO airport designator
Station Type Date Time Source
ORBI METAR 2020/09/25 08:00 UTC NOAA

ORBI 250800Z 34009KT CAVOK 38/12 Q1008


Station Type Date Time Source
ORBI Decoded METAR 2020/09/25 08:00 UTC NOAA

Station name not available
Sep 25, 2020 - 04:00 AM EDT / 2020.09.25 0800 UTC
Wind: from the NNW (340 degrees) at 10 MPH (9 KT):0
Visibility: greater than 7 mile(s):0
Temperature: 100 F (38 C)
Heat index: 97.9 F (36.6 C):1
Dew Point: 53 F (12 C)
Relative Humidity: 21%
Pressure (altimeter): 29.77 in. Hg (1008 hPa)
ob: ORBI 250800Z 34009KT CAVOK 38/12 Q1008
cycle: 8

Station Type Date Time Source
ORBI TAF 2020/09/25 06:18 UTC NOAA

TAF TAF ORBI 250400Z 2506/2606 28006KT CAVOK
BECMG 2510/2512 08008KT

Example: see airport list